createdAt,value
2018-11-23T00:02:08.556Z,92.93
2018-11-23T00:07:12.161Z,96.70
2018-11-23T00:12:15.811Z,99.97
2018-11-23T00:17:19.470Z,96.37
2018-11-23T00:22:23.324Z,102.00
2018-11-23T00:27:27.013Z,102.60
2018-11-23T00:32:30.890Z,100.13
2018-11-23T00:37:34.794Z,95.80
2018-11-23T00:42:38.851Z,107.63
2018-11-23T00:47:43.300Z,105.97
2018-11-23T00:52:47.586Z,109.37
2018-11-23T00:57:51.173Z,102.10
2018-11-23T01:02:56.353Z,109.00
2018-11-23T01:08:00.016Z,105.73
2018-11-23T01:13:03.543Z,109.17
2018-11-23T01:18:07.128Z,109.50
2018-11-23T01:23:10.812Z,103.80
2018-11-23T01:28:14.431Z,107.57
2018-11-23T01:33:18.235Z,106.77
2018-11-23T01:38:21.791Z,99.07
2018-11-23T01:43:25.346Z,105.27
2018-11-23T01:48:28.883Z,97.50
2018-11-23T01:53:32.587Z,99.17
2018-11-23T01:58:36.144Z,105.47
2018-11-23T02:03:40.149Z,103.47
2018-11-23T02:08:43.810Z,98.10
2018-11-23T02:13:48.514Z,101.90
2018-11-23T02:18:52.096Z,97.87
2018-11-23T02:23:55.755Z,93.57
2018-11-23T02:28:59.379Z,95.83
2018-11-23T02:34:02.967Z,97.07
2018-11-23T02:39:08.361Z,102.17
2018-11-23T02:44:12.026Z,103.70
2018-11-23T02:49:15.979Z,100.63
2018-11-23T02:54:19.528Z,104.90
2018-11-23T02:59:24.063Z,96.93
2018-11-23T03:04:26.735Z,103.97
2018-11-23T03:09:30.382Z,107.17
2018-11-23T03:14:33.899Z,103.10
2018-11-23T03:19:37.421Z,98.37
2018-11-23T03:24:41.264Z,98.23
2018-11-23T03:29:44.865Z,99.37
2018-11-23T03:34:48.472Z,100.90
2018-11-23T03:39:52.099Z,101.80
2018-11-23T03:44:55.802Z,103.93
2018-11-23T03:49:59.311Z,96.37
2018-11-23T03:55:02.963Z,108.63
2018-11-23T04:00:17.314Z,98.90
2018-11-23T04:05:19.527Z,101.17
2018-11-23T04:10:23.053Z,98.07
2018-11-23T04:15:26.663Z,96.90
2018-11-23T04:20:30.278Z,95.47
2018-11-23T04:25:33.976Z,96.00
2018-11-23T04:30:37.534Z,95.20
2018-11-23T04:35:41.032Z,101.60
2018-11-23T04:40:44.575Z,98.63
2018-11-23T04:45:48.300Z,103.03
2018-11-23T04:50:51.984Z,95.50
2018-11-23T04:55:55.505Z,97.27
2018-11-23T05:00:59.079Z,90.70
2018-11-23T05:06:02.714Z,97.23
2018-11-23T05:11:06.389Z,96.27
2018-11-23T05:16:10.057Z,103.83
2018-11-23T05:21:13.548Z,99.20
2018-11-23T05:26:17.212Z,90.90
2018-11-23T05:31:20.839Z,98.30
2018-11-23T05:36:24.511Z,93.47
2018-11-23T05:41:28.104Z,102.37
2018-11-23T05:46:31.728Z,99.63
2018-11-23T05:51:35.431Z,98.73
2018-11-23T05:56:38.996Z,99.97
2018-11-23T06:01:42.522Z,95.90
2018-11-23T06:06:46.052Z,94.43
2018-11-23T06:11:50.030Z,93.77
2018-11-23T06:16:54.152Z,93.33
2018-11-23T06:21:57.708Z,103.17
2018-11-23T06:27:01.563Z,104.00
2018-11-23T06:32:21.020Z,103.30
2018-11-23T06:37:24.543Z,106.50
2018-11-23T06:42:28.199Z,107.00
2018-11-23T06:47:31.746Z,107.63
2018-11-23T06:52:35.367Z,102.73
2018-11-23T06:57:39.181Z,107.60
2018-11-23T07:02:43.501Z,95.80
2018-11-23T07:07:47.077Z,109.43
2018-11-23T07:12:50.900Z,93.20
2018-11-23T07:17:54.626Z,102.80
2018-11-23T07:22:58.276Z,110.23
2018-11-23T07:28:01.811Z,107.00
2018-11-23T07:33:05.941Z,113.67
2018-11-23T07:38:09.741Z,105.60
2018-11-23T07:43:13.844Z,105.70
2018-11-23T07:48:17.513Z,107.10
2018-11-23T07:53:21.197Z,101.53
2018-11-23T07:58:24.853Z,100.83
2018-11-23T08:03:28.485Z,93.43
2018-11-23T08:08:32.343Z,96.13
2018-11-23T08:13:36.912Z,97.03
2018-11-23T08:18:40.472Z,85.70
2018-11-23T08:23:44.049Z,90.60
2018-11-23T08:28:47.746Z,90.60
2018-11-23T08:33:51.288Z,88.30
2018-11-23T08:38:55.030Z,89.83
2018-11-23T08:43:59.212Z,87.50
2018-11-23T08:49:03.201Z,94.63
2018-11-23T08:54:06.937Z,88.77
2018-11-23T08:59:10.531Z,88.27
2018-11-23T09:04:14.113Z,94.10
2018-11-23T09:09:17.864Z,85.83
2018-11-23T09:14:21.581Z,94.63
2018-11-23T09:19:25.177Z,81.60
2018-11-23T09:24:28.970Z,83.87
2018-11-23T09:29:33.237Z,88.17
2018-11-23T09:34:36.801Z,85.70
2018-11-23T09:39:40.382Z,84.87
2018-11-23T09:44:44.074Z,85.90
2018-11-23T09:49:47.743Z,86.03
2018-11-23T09:54:51.277Z,84.23
2018-11-23T09:59:54.915Z,84.57
2018-11-23T10:04:58.620Z,84.10
2018-11-23T10:10:02.254Z,79.37
2018-11-23T10:15:07.109Z,86.20
2018-11-23T10:20:16.594Z,82.60
2018-11-23T10:25:22.947Z,82.97
2018-11-23T10:30:27.857Z,83.83
2018-11-23T10:35:31.882Z,76.43
2018-11-23T10:40:38.287Z,81.73
2018-11-23T10:45:42.142Z,86.53
2018-11-23T10:50:45.749Z,83.53
2018-11-23T10:55:49.271Z,83.33
2018-11-23T11:00:58.559Z,85.20
2018-11-23T11:06:13.284Z,81.50
2018-11-23T11:11:16.917Z,89.53
2018-11-23T11:16:20.512Z,93.23
2018-11-23T11:21:24.164Z,87.33
2018-11-23T11:26:27.680Z,94.47
2018-11-23T11:31:31.391Z,97.40
2018-11-23T11:36:35.052Z,93.23
2018-11-23T11:41:39.076Z,88.20
2018-11-23T11:46:42.578Z,88.67
2018-11-23T11:51:46.139Z,90.03
2018-11-23T11:56:49.704Z,84.90
2018-11-23T12:01:53.380Z,76.03
2018-11-23T12:06:56.897Z,76.13
2018-11-23T12:12:00.534Z,84.63
2018-11-23T12:17:04.552Z,75.73
2018-11-23T12:22:08.083Z,76.40
2018-11-23T12:27:11.628Z,79.43
2018-11-23T12:32:15.272Z,75.20
2018-11-23T12:37:18.921Z,71.57
2018-11-23T12:42:22.821Z,78.43
2018-11-23T12:47:26.415Z,74.10
2018-11-23T12:52:29.985Z,73.90
2018-11-23T12:57:33.631Z,76.80
2018-11-23T13:02:37.479Z,74.33
2018-11-23T13:07:41.019Z,75.53
2018-11-23T13:12:50.639Z,69.37
2018-11-23T13:17:48.393Z,71.07
2018-11-23T13:22:52.117Z,65.40
2018-11-23T13:27:56.046Z,71.90
2018-11-23T13:32:59.654Z,75.93
2018-11-23T13:38:03.221Z,69.97
2018-11-23T13:43:06.963Z,76.97
2018-11-23T13:48:10.508Z,69.63
2018-11-23T13:53:14.111Z,70.37
2018-11-23T13:58:17.769Z,73.90
2018-11-23T14:03:21.481Z,79.47
2018-11-23T14:08:25.143Z,73.37
2018-11-23T14:13:28.797Z,78.07
2018-11-23T14:18:32.350Z,76.17
2018-11-23T14:23:35.993Z,76.93
2018-11-23T14:28:39.500Z,83.10
2018-11-23T14:33:43.091Z,77.87
2018-11-23T14:38:46.644Z,82.77
2018-11-23T14:43:50.488Z,81.43
2018-11-23T14:48:54.145Z,80.30
2018-11-23T14:53:57.716Z,85.43
2018-11-23T14:59:01.236Z,83.55
2018-11-23T15:04:05.147Z,79.67
2018-11-23T15:09:10.475Z,79.37
2018-11-23T15:14:14.263Z,86.90
2018-11-23T15:19:17.925Z,86.10
2018-11-23T15:24:21.528Z,85.50
2018-11-23T15:29:25.261Z,89.83
2018-11-23T15:34:28.894Z,88.73
2018-11-23T15:39:32.781Z,85.33
2018-11-23T15:44:36.320Z,90.30
2018-11-23T15:49:39.943Z,90.97
2018-11-23T15:54:43.685Z,96.60
2018-11-23T15:59:47.476Z,99.80
2018-11-23T16:04:51.206Z,102.10
2018-11-23T16:09:54.829Z,103.40
2018-11-23T16:14:58.494Z,117.27
2018-11-23T16:20:02.564Z,108.50
2018-11-23T16:25:08.745Z,114.33
2018-11-23T16:30:18.381Z,117.30
2018-11-23T16:35:23.810Z,116.73
2018-11-23T16:40:29.448Z,113.27
2018-11-23T16:45:34.456Z,121.20
2018-11-23T16:50:38.232Z,117.60
2018-11-23T16:55:41.998Z,115.57
2018-11-23T17:00:47.072Z,116.13
2018-11-23T17:05:52.821Z,107.23
2018-11-23T17:10:57.049Z,110.37
2018-11-23T17:16:00.850Z,110.37
2018-11-23T17:21:04.638Z,111.97
2018-11-23T17:26:08.218Z,103.07
2018-11-23T17:31:11.786Z,99.17
2018-11-23T17:36:15.551Z,91.87
2018-11-23T17:41:19.356Z,90.83
2018-11-23T17:46:22.935Z,77.37
2018-11-23T17:51:26.574Z,86.27
2018-11-23T17:56:30.377Z,80.97
2018-11-23T18:01:34.256Z,87.53
2018-11-23T18:06:38.223Z,90.53
2018-11-23T18:11:41.875Z,86.20
2018-11-23T18:16:45.424Z,95.17
2018-11-23T18:21:49.106Z,92.90
2018-11-23T18:26:53.045Z,91.50
2018-11-23T18:31:56.568Z,89.83
2018-11-23T18:37:00.290Z,87.53
2018-11-23T18:42:04.161Z,83.57
2018-11-23T18:47:14.721Z,88.67
2018-11-23T18:52:18.381Z,85.13
2018-11-23T18:57:22.289Z,82.70
2018-11-23T19:02:25.972Z,76.93
2018-11-23T19:07:29.642Z,81.57
2018-11-23T19:12:33.371Z,81.13
2018-11-23T19:17:36.978Z,81.03
2018-11-23T19:22:42.291Z,83.33
2018-11-23T19:27:46.143Z,88.67
2018-11-23T19:32:49.720Z,85.23
2018-11-23T19:37:53.437Z,87.47
2018-11-23T19:42:57.252Z,80.60
2018-11-23T19:48:01.190Z,82.60
2018-11-23T19:53:04.916Z,83.70
2018-11-23T19:58:09.329Z,83.83
2018-11-23T20:03:13.140Z,86.20
2018-11-23T20:08:16.866Z,76.10
2018-11-23T20:13:20.394Z,84.57
2018-11-23T20:18:24.184Z,84.07
2018-11-23T20:23:27.733Z,87.00
2018-11-23T20:28:31.807Z,92.70
2018-11-23T20:33:35.488Z,84.20
2018-11-23T20:38:39.123Z,83.93
2018-11-23T20:43:42.993Z,86.93
2018-11-23T20:48:46.580Z,82.77
2018-11-23T20:53:50.206Z,78.50
2018-11-23T20:58:53.998Z,72.87
2018-11-23T21:03:57.680Z,72.93
2018-11-23T21:09:01.518Z,81.90
2018-11-23T21:14:05.896Z,78.50
2018-11-23T21:19:09.649Z,83.20
2018-11-23T21:24:13.389Z,79.90
2018-11-23T21:29:17.084Z,62.10
2018-11-23T21:34:20.654Z,60.47
2018-11-23T21:39:24.465Z,62.13
2018-11-23T21:44:28.231Z,54.60
2018-11-23T21:49:31.779Z,46.87
2018-11-23T21:54:35.487Z,45.80
2018-11-23T21:59:39.167Z,47.95
2018-11-23T22:04:42.898Z,45.47
2018-11-23T22:09:47.824Z,47.83
2018-11-23T22:14:52.447Z,53.57
2018-11-23T22:19:56.144Z,57.30
2018-11-23T22:24:59.965Z,46.10
2018-11-23T22:30:07.680Z,58.83
2018-11-23T22:35:12.795Z,54.50
2018-11-23T22:40:18.223Z,63.57
2018-11-23T22:45:23.057Z,60.80
2018-11-23T22:50:26.841Z,56.40
2018-11-23T22:55:30.381Z,61.73
2018-11-23T23:00:37.839Z,58.03
2018-11-23T23:05:42.671Z,58.83
2018-11-23T23:10:45.364Z,56.63
2018-11-23T23:15:49.007Z,62.27
2018-11-23T23:20:52.638Z,52.73
2018-11-23T23:25:56.280Z,57.27
2018-11-23T23:31:00.109Z,53.77
2018-11-23T23:36:03.803Z,62.53
2018-11-23T23:41:07.606Z,63.83
2018-11-23T23:46:11.618Z,61.87
2018-11-23T23:51:15.288Z,60.10
2018-11-23T23:56:18.860Z,57.93
